메인 페이지
METAR-TAF:

METAR-TAF

공항 :

세이셸 국제공항

빅토리아, 마에 섬, 세이셸

위도: 04-40S, 경도: 055-31E, 고도: 3m

현재 날씨관측

예보는 10분 전, 16:00시(UTC)에 발표되었습니다.
서북서9kt풍과 북서풍을 오가는
온도 27°C
습도 84%
기압 1011 hPa
시정 10km 이상
고도 1400ft 상공 구름 조금
고도 2200ft 상공 구름 많음
약한소나기

METAR: FSIA 181600Z 29009KT 260V320 9999 -SHRA FEW014 BKN022 27/24 Q1011 TEMPO 8000 SHRA

시각: 20:10 (16:10 UTC)

예보

예보는 5 시간 7분 전, 11:03시(UTC)에 발표되었습니다.
예보 대상 시간: 18일 12시부터 19일 12시까지 (UTC)
서북서15kt, 순간 최대 풍속 24kt
시정 10km 이상
고도 2500ft 상공 구름 조금
확률 40% :
일시적
18일 17시부터 18일 23시까지 (UTC)
시정: 8000m
고도 1200ft 상공 구름 조금
고도 2000ft 상공 구름 많음
약한소나기

TAF: FSIA 181103Z 1812/1912 30015G24KT 9999 FEW025 PROB40 TEMPO 1817/1823 8000 -SHRA FEW012 BKN020

4,000개 이상의 공항 관측 자료 및 예보 (METAR 및 TAF 보고).

지도상에서 검색 가능한 기상관측소가 노란 점과 빨간 점으로 표시되어 있습니다.

기상관측소 명을 보려면 표시 위로 마우스를 이동하세요.

날씨 관측과 예보를 보려면 클릭하세요.

지도 변경 : 확대하려면 엑스 표시가 있는 녹색 버튼, 축소하려면 빼기 표시가 있는 녹색 버튼, 다음 페이지의 지도를 보려면 녹색 화살표를 클릭하세요.


METAR-TAF: